createdAt,value
2022-10-07T00:03:27.106Z,101465.03
2022-10-07T00:08:30.336Z,101465.13
2022-10-07T00:13:33.616Z,101467.09
2022-10-07T00:18:37.240Z,101462.78
2022-10-07T00:23:44.250Z,101466.56
2022-10-07T00:28:47.450Z,101459.97
2022-10-07T00:33:50.541Z,101457.72
2022-10-07T00:38:58.199Z,101452.97
2022-10-07T00:44:21.820Z,101446.38
2022-10-07T00:49:24.540Z,101442.59
2022-10-07T00:54:27.277Z,101440.19
2022-10-07T00:59:30.124Z,101434.19
2022-10-07T01:04:33.009Z,101426.03
2022-10-07T01:09:36.239Z,101429.66
2022-10-07T01:14:54.749Z,101434.16
2022-10-07T01:20:09.390Z,101419.31
2022-10-07T01:25:49.609Z,101427.44
2022-10-07T01:30:56.663Z,101424.91
2022-10-07T01:36:05.894Z,101421.25
2022-10-07T01:41:15.669Z,101423.22
2022-10-07T01:46:22.096Z,101420.69
2022-10-07T01:51:28.450Z,101415.91
2022-10-07T01:57:02.069Z,101426.09
2022-10-07T02:02:41.368Z,101424.22
2022-10-07T02:08:22.935Z,101422.00
2022-10-07T02:13:29.084Z,101425.19
2022-10-07T02:18:34.321Z,101418.72
2022-10-07T02:23:40.126Z,101410.31
2022-10-07T02:28:43.893Z,101412.41
2022-10-07T02:33:47.372Z,101411.25
2022-10-07T02:38:50.083Z,101407.31
2022-10-07T02:43:56.684Z,101419.00
2022-10-07T02:49:02.625Z,101416.03
2022-10-07T02:54:05.627Z,101410.44
2022-10-07T02:59:11.596Z,101409.72
2022-10-07T03:04:14.442Z,101409.13
2022-10-07T03:09:17.249Z,101404.94
2022-10-07T03:14:20.575Z,101396.28
2022-10-07T03:19:23.987Z,101403.50
2022-10-07T03:24:26.629Z,101406.31
2022-10-07T03:29:32.771Z,101397.66
2022-10-07T03:34:35.374Z,101403.19
2022-10-07T03:39:38.235Z,101400.81
2022-10-07T03:44:40.928Z,101403.00
2022-10-07T03:49:46.642Z,101398.94
2022-10-07T03:54:49.314Z,101396.56
2022-10-07T03:59:53.628Z,101402.78
2022-10-07T04:04:56.338Z,101399.44
2022-10-07T04:09:59.240Z,101392.72
2022-10-07T04:15:02.047Z,101392.72
2022-10-07T04:20:05.096Z,101385.88
2022-10-07T04:25:27.692Z,101382.88
2022-10-07T04:30:34.874Z,101377.00
2022-10-07T04:35:39.082Z,101385.47
2022-10-07T04:40:47.868Z,101378.63
2022-10-07T04:45:55.457Z,101382.47
2022-10-07T04:51:05.612Z,101383.44
2022-10-07T04:56:09.737Z,101385.63
2022-10-07T05:01:12.484Z,101389.41
2022-10-07T05:06:15.127Z,101391.22
2022-10-07T05:11:17.762Z,101394.56
2022-10-07T05:16:21.025Z,101402.84
2022-10-07T05:21:23.752Z,101400.78
2022-10-07T05:26:26.379Z,101405.59
2022-10-07T05:31:29.141Z,101400.47
2022-10-07T05:36:31.806Z,101401.41
2022-10-07T05:41:44.562Z,101404.94
2022-10-07T05:46:47.693Z,101406.00
2022-10-07T05:51:51.416Z,101404.94
2022-10-07T05:56:53.996Z,101402.34
2022-10-07T06:02:00.352Z,101408.28
2022-10-07T06:07:04.167Z,101414.91
2022-10-07T06:12:25.210Z,101420.56
2022-10-07T06:17:27.802Z,101415.31
2022-10-07T06:22:30.397Z,101418.19
2022-10-07T06:27:34.329Z,101423.44
2022-10-07T06:32:38.012Z,101417.16
2022-10-07T06:37:40.693Z,101414.47
2022-10-07T06:42:43.360Z,101416.84
2022-10-07T06:47:46.095Z,101404.25
2022-10-07T06:52:49.325Z,101404.44
2022-10-07T06:57:52.015Z,101401.28
2022-10-07T07:02:54.609Z,101399.78
2022-10-07T07:07:57.348Z,101399.59
2022-10-07T07:18:07.241Z,101388.16
2022-10-07T07:23:12.633Z,101392.09
2022-10-07T07:28:16.260Z,101381.63
2022-10-07T07:33:18.930Z,101383.78
2022-10-07T07:38:24.811Z,101381.72
2022-10-07T07:43:28.176Z,101382.63
2022-10-07T07:48:31.229Z,101382.66
2022-10-07T07:53:34.384Z,101377.63
2022-10-07T07:58:37.034Z,101380.63
2022-10-07T08:03:43.125Z,101378.28
2022-10-07T08:08:45.713Z,101373.41
2022-10-07T08:13:48.396Z,101367.84
2022-10-07T08:18:52.375Z,101355.72
2022-10-07T08:23:57.391Z,101351.75
2022-10-07T08:29:01.564Z,101347.78
2022-10-07T08:34:05.422Z,101340.97
2022-10-07T08:39:08.133Z,101343.53
2022-10-07T08:44:16.731Z,101335.56
2022-10-07T08:49:36.610Z,101324.84
2022-10-07T08:54:39.267Z,101318.78
2022-10-07T08:59:46.857Z,101320.28
2022-10-07T09:05:20.094Z,101312.50
2022-10-07T09:10:34.683Z,101306.09
2022-10-07T09:15:46.531Z,101312.03
2022-10-07T09:20:54.042Z,101313.22
2022-10-07T09:25:56.791Z,101297.41
2022-10-07T09:31:00.858Z,101284.66
2022-10-07T09:36:10.195Z,101279.41
2022-10-07T09:41:19.809Z,101274.59
2022-10-07T09:46:48.544Z,101268.19
2022-10-07T09:52:03.369Z,101252.38
2022-10-07T09:57:22.572Z,101242.69
2022-10-07T10:02:26.334Z,101243.47
2022-10-07T10:07:32.667Z,101237.41
2022-10-07T10:12:44.948Z,101226.91
2022-10-07T10:17:48.319Z,101224.88
2022-10-07T10:22:52.042Z,101216.41
2022-10-07T10:28:03.790Z,101206.22
2022-10-07T10:33:13.420Z,101198.97
2022-10-07T10:38:18.994Z,101190.84
2022-10-07T10:43:24.735Z,101188.28
2022-10-07T10:48:29.248Z,101176.78
2022-10-07T10:54:06.139Z,101169.66
2022-10-07T10:59:49.102Z,101161.00
2022-10-07T11:05:03.176Z,101150.13
2022-10-07T11:10:20.290Z,101137.66
2022-10-07T11:15:28.414Z,101130.16
2022-10-07T11:20:42.313Z,101110.25
2022-10-07T11:25:57.375Z,101106.38
2022-10-07T11:31:12.728Z,101101.03
2022-10-07T11:36:19.978Z,101088.28
2022-10-07T11:41:26.686Z,101084.22
2022-10-07T11:46:44.874Z,101076.28
2022-10-07T11:51:59.690Z,101066.91
2022-10-07T11:57:02.303Z,101054.75
2022-10-07T12:02:05.118Z,101047.69
2022-10-07T12:07:35.945Z,101043.09
2022-10-07T12:12:45.276Z,101035.63
2022-10-07T12:18:06.373Z,101020.88
2022-10-07T12:23:26.669Z,101015.44
2022-10-07T12:28:35.373Z,101010.91
2022-10-07T12:33:45.230Z,100998.50
2022-10-07T12:38:57.316Z,100998.97
2022-10-07T12:44:45.567Z,101000.09
2022-10-07T12:49:50.945Z,100992.06
2022-10-07T12:55:00.780Z,100986.47
2022-10-07T13:00:11.459Z,100983.19
2022-10-07T13:05:43.781Z,100975.94
2022-10-07T13:11:23.364Z,100968.03
2022-10-07T13:16:38.098Z,100967.38
2022-10-07T13:21:46.701Z,100951.63
2022-10-07T13:26:49.953Z,100955.38
2022-10-07T13:32:16.230Z,100945.22
2022-10-07T13:37:27.709Z,100935.06
2022-10-07T13:42:30.333Z,100936.97
2022-10-07T13:47:36.735Z,100917.44
2022-10-07T13:52:46.983Z,100919.94
2022-10-07T13:57:50.292Z,100914.75
2022-10-07T14:02:53.471Z,100908.56
2022-10-07T14:07:57.225Z,100903.38
2022-10-07T14:13:15.157Z,100901.09
2022-10-07T14:18:18.592Z,100892.84
2022-10-07T14:23:31.322Z,100896.56
2022-10-07T14:28:35.989Z,100884.34
2022-10-07T14:34:08.784Z,100876.50
2022-10-07T14:39:30.731Z,100873.66
2022-10-07T14:44:33.397Z,100876.16
2022-10-07T14:49:36.405Z,100876.19
2022-10-07T14:54:39.808Z,100871.25
2022-10-07T14:59:42.401Z,100865.28
2022-10-07T15:04:45.641Z,100866.53
2022-10-07T15:09:48.433Z,100867.19
2022-10-07T15:14:51.199Z,100859.56
2022-10-07T15:19:53.923Z,100854.97
2022-10-07T15:24:57.123Z,100861.03
2022-10-07T15:30:00.479Z,100858.97
2022-10-07T15:35:03.196Z,100855.03
2022-10-07T15:40:07.604Z,100858.94
2022-10-07T15:45:11.282Z,100857.09
2022-10-07T15:50:14.707Z,100855.66
2022-10-07T15:55:17.512Z,100857.25
2022-10-07T16:00:20.936Z,100857.59
2022-10-07T16:05:24.339Z,100855.47
2022-10-07T16:10:27.019Z,100860.94
2022-10-07T16:15:29.801Z,100864.28
2022-10-07T16:20:32.659Z,100872.81
2022-10-07T16:25:35.507Z,100857.16
2022-10-07T16:30:41.141Z,100867.06
2022-10-07T16:35:43.684Z,100873.63
2022-10-07T16:40:55.540Z,100878.13
2022-10-07T16:46:03.113Z,100876.28
2022-10-07T16:51:17.628Z,100864.47
2022-10-07T16:56:20.597Z,100873.91
2022-10-07T17:01:24.613Z,100875.13
2022-10-07T17:06:29.447Z,100874.63
2022-10-07T17:11:34.079Z,100866.94
2022-10-07T17:16:39.848Z,100868.97
2022-10-07T17:21:42.706Z,100871.38
2022-10-07T17:26:45.833Z,100873.84
2022-10-07T17:31:50.949Z,100870.75
2022-10-07T17:36:54.298Z,100871.38
2022-10-07T17:41:57.487Z,100875.09
2022-10-07T17:47:03.650Z,100880.69
2022-10-07T17:52:06.332Z,100876.53
2022-10-07T17:57:08.918Z,100869.72
2022-10-07T18:02:12.306Z,100866.28
2022-10-07T18:07:16.309Z,100876.84
2022-10-07T18:12:38.022Z,100870.03
2022-10-07T18:17:40.643Z,100864.88
2022-10-07T18:22:44.212Z,100872.13
2022-10-07T18:27:47.017Z,100859.13
2022-10-07T18:32:49.963Z,100862.84
2022-10-07T18:37:55.389Z,100864.88
2022-10-07T18:42:58.260Z,100863.38
2022-10-07T18:48:00.950Z,100857.91
2022-10-07T18:53:03.712Z,100857.22
2022-10-07T18:58:06.303Z,100859.06
2022-10-07T19:03:09.208Z,100857.25
2022-10-07T19:08:11.843Z,100848.41
2022-10-07T19:13:34.030Z,100849.25
2022-10-07T19:18:37.732Z,100847.91
2022-10-07T19:23:40.741Z,100854.22
2022-10-07T19:28:45.710Z,100858.56
2022-10-07T19:33:50.537Z,100855.53
2022-10-07T19:38:53.415Z,100848.19
2022-10-07T19:43:56.642Z,100858.69
2022-10-07T19:49:01.099Z,100853.19
2022-10-07T19:54:07.765Z,100853.19
2022-10-07T19:59:12.454Z,100847.97
2022-10-07T20:04:18.837Z,100849.63
2022-10-07T20:09:22.528Z,100855.78
2022-10-07T20:14:25.217Z,100851.22
2022-10-07T20:19:27.814Z,100858.72
2022-10-07T20:24:30.451Z,100858.03
2022-10-07T20:29:53.036Z,100860.34
2022-10-07T20:34:55.632Z,100849.34
2022-10-07T20:40:17.052Z,100849.63
2022-10-07T20:45:20.804Z,100850.94
2022-10-07T20:50:23.409Z,100845.94
2022-10-07T20:55:26.090Z,100845.28
2022-10-07T21:00:28.646Z,100846.41
2022-10-07T21:05:31.316Z,100845.91
2022-10-07T21:10:33.962Z,100828.88
2022-10-07T21:15:37.600Z,100834.84
2022-10-07T21:20:56.835Z,100834.34
2022-10-07T21:26:04.018Z,100835.09
2022-10-07T21:31:09.294Z,100827.91
2022-10-07T21:36:17.404Z,100842.22
2022-10-07T21:41:22.962Z,100837.38
2022-10-07T21:46:26.933Z,100832.66
2022-10-07T21:51:31.951Z,100827.34
2022-10-07T21:56:34.963Z,100829.34
2022-10-07T22:01:38.667Z,100822.66
2022-10-07T22:07:13.568Z,100826.63
2022-10-07T22:12:16.163Z,100808.97
2022-10-07T22:17:19.410Z,100805.00
2022-10-07T22:22:22.050Z,100804.00
2022-10-07T22:27:25.283Z,100799.28
2022-10-07T22:32:28.243Z,100799.22
2022-10-07T22:37:30.918Z,100792.72
2022-10-07T22:42:35.434Z,100789.00
2022-10-07T22:47:39.465Z,100787.78
2022-10-07T22:52:42.271Z,100788.56
2022-10-07T22:57:44.887Z,100785.69
2022-10-07T23:02:47.835Z,100784.31
2022-10-07T23:07:50.632Z,100781.31
2022-10-07T23:12:53.204Z,100783.44
2022-10-07T23:17:56.959Z,100776.59
2022-10-07T23:22:59.532Z,100777.56
2022-10-07T23:28:02.102Z,100777.19
2022-10-07T23:33:04.719Z,100774.19
2022-10-07T23:38:08.786Z,100778.78
2022-10-07T23:43:11.563Z,100776.44
2022-10-07T23:48:14.868Z,100767.94
2022-10-07T23:53:19.290Z,100766.41
2022-10-07T23:58:24.222Z,100763.53
